Time;durP1;ratioP1;P1;durP2;ratioP2;P2;SDS_P1;SDS_P2;PMS_P1;PMS_P2;Temp;Humidity;BMP_temperature;BMP_pressure;BME280_temperature;BME280_humidity;BME280_pressure;Samples;Min_cycle;Max_cycle;Signal;HPM_P1;HPM_P2
2022/04/26 03:37:33;;;;;;;51.28;45.67;;;;;;;13.42;67.99;98419.84;5093318;28;20100;-50
2022/04/26 03:39:59;;;;;;;40.63;36.92;;;;;;;13.74;67.35;98410.66;5093416;28;20024;-50
2022/04/26 03:42:25;;;;;;;23.95;21.55;;;;;;;13.81;65.82;98420.28;5092113;28;20390;-51
2022/04/26 03:44:51;;;;;;;23.55;21.40;;;;;;;13.58;66.11;98412.09;5093408;28;20020;-51
2022/04/26 03:47:17;;;;;;;15.75;14.13;;;;;;;13.29;66.66;98419.00;5092050;28;20024;-50
2022/04/26 03:49:42;;;;;;;15.32;12.57;;;;;;;13.01;67.28;98421.41;5092026;28;20032;-51
2022/04/26 03:52:08;;;;;;;15.27;13.23;;;;;;;12.90;68.22;98420.31;5093106;28;20024;-51
2022/04/26 03:54:34;;;;;;;16.50;11.18;;;;;;;12.93;67.89;98423.28;5093208;28;20035;-51
2022/04/26 03:57:00;;;;;;;78.32;71.30;;;;;;;13.01;68.14;98418.75;5093125;28;20031;-52
2022/04/26 03:59:26;;;;;;;25.92;22.55;;;;;;;13.05;68.55;98426.00;5093156;28;20028;-51
2022/04/26 04:01:52;;;;;;;12.27;9.95;;;;;;;13.04;68.02;98429.66;5093058;28;20106;-50
2022/04/26 04:04:18;;;;;;;11.90;10.10;;;;;;;13.04;68.15;98434.94;5093053;28;20031;-52
2022/04/26 04:06:43;;;;;;;12.25;10.45;;;;;;;12.92;67.74;98437.50;5092901;28;20052;-51
2022/04/26 04:09:09;;;;;;;17.10;13.20;;;;;;;12.92;68.17;98429.59;5092906;28;20024;-50
2022/04/26 04:11:35;;;;;;;19.92;11.45;;;;;;;12.98;68.11;98430.56;5092877;28;20031;-52
2022/04/26 04:14:01;;;;;;;21.02;13.35;;;;;;;13.13;68.41;98430.94;5092726;28;20024;-51
2022/04/26 04:16:27;;;;;;;14.38;10.35;;;;;;;13.26;68.00;98434.44;5092785;28;20150;-51
2022/04/26 04:21:36;;;;;;;17.35;10.45;;;;;;;13.66;67.56;98441.81;5092681;28;20102;-51
2022/04/26 04:24:03;;;;;;;16.30;9.23;;;;;;;13.82;66.49;98438.50;5091354;28;20035;-51
2022/04/26 04:26:28;;;;;;;12.43;9.60;;;;;;;13.89;66.28;98441.84;5092600;28;20012;-51
2022/04/26 04:28:54;;;;;;;11.43;8.55;;;;;;;13.91;66.05;98447.69;5092567;28;20027;-51
2022/04/26 04:31:20;;;;;;;13.50;11.48;;;;;;;13.89;65.70;98455.03;5092587;28;20048;-51
2022/04/26 04:33:46;;;;;;;13.73;10.43;;;;;;;13.76;65.81;98457.88;5092665;28;20072;-51
2022/04/26 04:36:12;;;;;;;15.02;9.88;;;;;;;13.60;66.28;98456.69;5091092;28;20020;-52
2022/04/26 04:38:37;;;;;;;14.25;9.77;;;;;;;13.49;66.22;98466.19;5090860;28;20051;-51
2022/04/26 04:41:04;;;;;;;17.30;14.80;;;;;;;13.35;66.77;98464.75;5092186;28;20073;-50
2022/04/26 04:43:30;;;;;;;14.52;9.90;;;;;;;13.33;67.28;98464.19;5090899;28;20016;-50
2022/04/26 04:45:56;;;;;;;11.68;9.57;;;;;;;13.20;67.40;98465.13;5092251;28;20024;-51
2022/04/26 04:48:22;;;;;;;14.93;10.05;;;;;;;13.17;67.55;98468.19;5090923;28;20030;-51
2022/04/26 04:50:48;;;;;;;17.88;14.45;;;;;;;13.19;67.72;98466.16;5092207;28;20016;-50
2022/04/26 04:53:14;;;;;;;12.55;10.77;;;;;;;13.30;67.26;98478.63;5092082;28;20016;-51
2022/04/26 04:55:40;;;;;;;13.93;10.15;;;;;;;13.33;67.25;98474.72;5092151;28;20048;-51
2022/04/26 04:58:07;;;;;;;14.57;10.07;;;;;;;13.27;67.27;98481.66;5092117;28;20439;-51
2022/04/26 05:00:34;;;;;;;15.60;8.98;;;;;;;13.27;67.39;98473.75;5092037;28;20024;-50
2022/04/26 05:03:00;;;;;;;14.82;11.35;;;;;;;13.22;67.11;98481.53;5090750;28;20024;-51
2022/04/26 05:05:25;;;;;;;21.48;10.85;;;;;;;13.05;67.34;98477.88;5092030;28;20466;-51
2022/04/26 05:07:52;;;;;;;13.93;9.55;;;;;;;12.98;67.61;98484.03;5091942;28;20514;-50
2022/04/26 05:10:18;;;;;;;11.60;9.00;;;;;;;12.98;67.77;98485.88;5090653;28;20024;-50
2022/04/26 05:12:44;;;;;;;13.55;10.32;;;;;;;13.02;68.14;98478.31;5091795;28;20056;-51
2022/04/26 05:15:10;;;;;;;20.33;11.25;;;;;;;13.11;67.92;98484.91;5091891;28;20059;-51
2022/04/26 05:17:36;;;;;;;17.08;10.10;;;;;;;13.26;67.53;98484.50;5091917;28;20047;-51
2022/04/26 05:20:03;;;;;;;14.82;10.85;;;;;;;13.46;67.10;98494.81;5091806;28;20036;-50
2022/04/26 05:22:28;;;;;;;19.45;10.02;;;;;;;13.51;66.44;98490.50;5090519;28;20024;-50
2022/04/26 05:24:54;;;;;;;18.65;10.60;;;;;;;13.59;66.63;98494.66;5091808;28;20031;-50
2022/04/26 05:27:25;;;;;;;17.75;10.65;;;;;;;13.78;66.33;98504.13;5091728;28;20020;-51
2022/04/26 05:29:51;;;;;;;18.23;10.40;;;;;;;14.05;66.04;98502.91;5090420;28;20028;-51
2022/04/26 05:32:22;;;;;;;21.70;10.70;;;;;;;14.40;65.36;98508.19;5107286;28;20401;-51
2022/04/26 05:34:54;;;;;;;22.52;10.38;;;;;;;14.63;64.99;98504.81;5091975;28;20035;-52
2022/04/26 05:37:19;;;;;;;18.40;9.93;;;;;;;14.88;64.40;98509.81;5091565;28;20532;-51
2022/04/26 05:39:45;;;;;;;17.88;10.40;;;;;;;15.19;63.71;98515.72;5090414;28;20060;-51
2022/04/26 05:42:11;;;;;;;22.25;10.77;;;;;;;15.67;62.61;98516.34;5091715;28;20031;-51
2022/04/26 05:44:38;;;;;;;25.92;10.35;;;;;;;16.15;61.15;98515.06;5091748;28;20031;-50
2022/04/26 05:47:07;;;;;;;22.50;10.25;;;;;;;16.26;60.40;98514.19;5091615;28;20397;-51
2022/04/26 05:49:34;;;;;;;19.40;9.52;;;;;;;16.23;60.31;98519.97;5090312;28;20033;-51
2022/04/26 05:52:00;;;;;;;27.95;11.32;;;;;;;16.44;60.38;98521.09;5090248;28;20020;-51
2022/04/26 05:54:26;;;;;;;14.57;9.85;;;;;;;16.52;59.60;98520.69;5092208;28;20028;-51
2022/04/26 05:56:53;;;;;;;31.77;10.70;;;;;;;16.47;59.48;98523.25;5095479;28;20047;-52
2022/04/26 05:59:23;;;;;;;16.77;10.30;;;;;;;16.53;59.45;98524.13;5095478;28;20024;-51
2022/04/26 06:01:50;;;;;;;17.58;11.25;;;;;;;16.62;58.98;98525.31;5095395;28;20521;-51
2022/04/26 06:04:16;;;;;;;16.13;10.68;;;;;;;16.75;58.63;98521.50;5095388;28;20062;-52
2022/04/26 06:06:42;;;;;;;21.45;11.20;;;;;;;17.52;57.25;98519.81;5094051;28;20024;-51
2022/04/26 06:09:07;;;;;;;17.63;9.77;;;;;;;18.67;54.28;98523.97;5095260;28;20514;-51
2022/04/26 06:11:34;;;;;;;19.02;11.77;;;;;;;19.02;52.58;98522.59;5095271;28;20013;-51
2022/04/26 06:14:01;;;;;;;12.25;10.25;;;;;;;18.84;52.54;98529.94;5093785;28;20409;-51
2022/04/26 06:16:28;;;;;;;12.75;10.65;;;;;;;19.52;51.87;98527.28;5095145;28;20012;-51
2022/04/26 06:18:54;;;;;;;22.67;11.30;;;;;;;20.11;50.18;98531.38;5095055;28;20051;-51
2022/04/26 06:21:20;;;;;;;13.65;10.85;;;;;;;20.18;49.84;98535.63;5093660;28;20020;-51
2022/04/26 06:23:46;;;;;;;18.48;10.88;;;;;;;20.09;49.97;98536.16;5094951;28;20028;-52
2022/04/26 06:26:11;;;;;;;11.93;10.18;;;;;;;20.07;49.57;98542.84;5094889;28;20106;-52
2022/04/26 06:28:37;;;;;;;21.92;10.95;;;;;;;20.08;49.55;98542.59;5094853;28;20028;-51
2022/04/26 06:31:03;;;;;;;15.80;10.90;;;;;;;20.00;49.57;98542.28;5094795;28;20103;-51
2022/04/26 06:33:28;;;;;;;12.95;10.80;;;;;;;19.68;50.25;98544.09;5094682;28;20478;-51
2022/04/26 06:35:54;;;;;;;14.35;10.60;;;;;;;19.48;50.63;98550.16;5094662;28;20652;-51
2022/04/26 06:38:23;;;;;;;17.38;11.60;;;;;;;19.12;51.15;98552.69;5093243;28;20036;-52
2022/04/26 06:40:49;;;;;;;17.02;11.35;;;;;;;18.79;51.95;98548.50;5093325;28;20024;-51
2022/04/26 06:43:15;;;;;;;15.40;12.82;;;;;;;18.64;52.27;98557.19;5094600;28;20012;-51
2022/04/26 06:45:41;;;;;;;18.08;13.90;;;;;;;18.25;52.58;98556.63;5093234;28;20063;-51
2022/04/26 06:48:09;;;;;;;19.25;11.35;;;;;;;18.00;53.90;98562.53;5093206;28;20077;-51
2022/04/26 06:50:35;;;;;;;17.15;13.48;;;;;;;17.93;53.93;98555.56;5093121;28;20571;-51
2022/04/26 06:53:00;;;;;;;24.60;13.70;;;;;;;17.84;54.19;98558.91;5094376;28;20540;-51
2022/04/26 06:55:26;;;;;;;23.85;14.02;;;;;;;17.88;54.31;98557.34;5094328;28;20024;-51
2022/04/26 06:57:52;;;;;;;19.50;12.35;;;;;;;17.98;54.31;98552.16;5092999;28;20024;-50
2022/04/26 07:00:18;;;;;;;17.90;13.13;;;;;;;18.04;54.07;98564.41;5092870;28;20027;-51
2022/04/26 07:02:43;;;;;;;23.73;19.63;;;;;;;18.13;53.77;98565.56;5092932;28;20048;-51
2022/04/26 07:05:11;;;;;;;32.05;19.42;;;;;;;18.10;53.78;98565.25;5093981;28;20020;-52
2022/04/26 07:07:38;;;;;;;19.33;13.77;;;;;;;18.09;53.82;98566.31;5094144;28;20016;-51
2022/04/26 07:10:05;;;;;;;29.45;22.35;;;;;;;18.05;53.74;98565.22;5094054;28;20035;-51
2022/04/26 07:12:31;;;;;;;32.72;27.67;;;;;;;17.99;53.58;98569.69;5092685;28;20027;-50
2022/04/26 07:14:57;;;;;;;25.70;15.40;;;;;;;17.93;53.92;98576.00;5094005;28;20059;-51
2022/04/26 07:17:24;;;;;;;21.70;14.40;;;;;;;18.00;53.70;98570.50;5093966;28;20028;-50
2022/04/26 07:19:50;;;;;;;21.92;12.25;;;;;;;18.14;53.69;98577.78;5092616;28;20055;-51
2022/04/26 07:22:16;;;;;;;21.33;12.88;;;;;;;18.29;53.01;98573.66;5093809;28;20024;-50
2022/04/26 07:24:42;;;;;;;16.73;11.57;;;;;;;18.26;53.08;98574.16;5093791;28;20059;-51
2022/04/26 07:27:07;;;;;;;20.92;12.15;;;;;;;18.65;52.89;98573.91;5109420;28;20020;-51
2022/04/26 07:29:34;;;;;;;30.92;21.75;;;;;;;19.11;51.74;98579.53;5092379;28;20024;-50
2022/04/26 07:32:00;;;;;;;21.08;13.32;;;;;;;19.56;50.78;98568.28;5093683;28;20103;-50
2022/04/26 07:34:26;;;;;;;15.40;12.35;;;;;;;20.06;49.67;98576.69;5092247;28;20111;-52
2022/04/26 07:36:54;;;;;;;15.95;12.65;;;;;;;20.27;48.81;98577.47;5093334;28;20016;-52
2022/04/26 07:39:20;;;;;;;19.00;11.85;;;;;;;20.06;49.17;98573.19;5092289;28;20081;-51
2022/04/26 07:41:47;;;;;;;18.98;12.27;;;;;;;19.98;49.07;98582.53;5093437;28;20111;-50
2022/04/26 07:44:14;;;;;;;16.73;12.40;;;;;;;20.07;48.71;98577.47;5093478;28;20229;-52
2022/04/26 07:46:47;;;;;;;16.65;12.27;;;;;;;20.04;48.33;98576.16;5092034;28;20020;-50
2022/04/26 07:49:13;;;;;;;13.25;11.85;;;;;;;20.02;48.12;98588.94;5093358;28;20425;-51
2022/04/26 07:51:40;;;;;;;13.45;11.90;;;;;;;19.92;48.09;98587.03;5091949;28;20088;-52
2022/04/26 07:54:06;;;;;;;12.25;10.98;;;;;;;20.33;47.86;98589.75;5091842;28;20101;-53
2022/04/26 07:56:33;;;;;;;15.30;12.18;;;;;;;21.15;45.63;98592.31;5091838;28;20115;-51
2022/04/26 07:59:01;;;;;;;15.98;12.40;;;;;;;21.18;45.65;98592.84;5093136;28;20095;-51
2022/04/26 08:01:28;;;;;;;13.77;12.23;;;;;;;20.94;46.22;98588.91;5093023;28;20024;-50
2022/04/26 08:03:54;;;;;;;16.67;12.23;;;;;;;20.95;46.43;98597.72;5093011;28;20532;-51
2022/04/26 08:06:20;;;;;;;20.08;12.52;;;;;;;21.05;46.19;98594.22;5092934;28;20024;-51
2022/04/26 08:08:46;;;;;;;12.25;10.82;;;;;;;21.74;45.18;98595.31;5092918;28;20482;-51
2022/04/26 08:11:13;;;;;;;19.70;10.85;;;;;;;21.93;44.15;98600.78;5092948;28;20024;-50
2022/04/26 08:13:43;;;;;;;11.27;6.20;;;;;;;22.36;42.70;98598.41;5092792;28;20104;-51
2022/04/26 08:16:10;;;;;;;13.93;8.07;;;;;;;22.83;40.89;98607.59;5092392;28;20027;-52
2022/04/26 08:18:37;;;;;;;12.35;8.68;;;;;;;22.81;41.02;98607.09;5092749;28;20016;-53
2022/04/26 08:21:06;;;;;;;8.52;7.60;;;;;;;22.60;41.53;98609.16;5092665;28;20081;-50
2022/04/26 08:23:31;;;;;;;13.38;8.95;;;;;;;22.27;41.48;98618.78;5092691;28;20027;-52
2022/04/26 08:28:58;;;;;;;7.45;6.68;;;;;;;26.16;36.44;98606.03;5070097;28;20631;-52
2022/04/26 08:31:24;;;;;;;12.23;6.82;;;;;;;27.47;33.79;98600.22;5070039;28;20075;-52
2022/04/26 08:33:50;;;;;;;10.13;5.78;;;;;;;28.38;31.66;98600.44;5069899;28;20089;-52
2022/04/26 08:36:15;;;;;;;9.73;5.60;;;;;;;29.67;29.59;98599.47;5053351;28;20025;-53
2022/04/26 08:38:42;;;;;;;6.57;4.82;;;;;;;31.06;27.54;98595.44;5069755;28;20425;-53
2022/04/26 08:41:07;;;;;;;13.75;5.32;;;;;;;32.12;26.21;98600.97;5069832;28;20024;-53
2022/04/26 08:43:38;;;;;;;5.93;4.35;;;;;;;31.08;26.35;98611.38;5069879;28;20042;-52
2022/04/26 08:46:04;;;;;;;21.52;5.32;;;;;;;29.93;27.74;98603.91;5069742;28;20039;-52
2022/04/26 08:51:14;;;;;;;13.20;5.07;;;;;;;29.74;27.48;98617.88;5055819;28;20567;-52
2022/04/26 08:53:40;;;;;;;15.35;4.97;;;;;;;28.03;29.55;98615.84;5019892;28;20033;-52
2022/04/26 08:56:06;;;;;;;12.63;4.25;;;;;;;26.96;31.01;98619.69;5053026;28;20036;-52
2022/04/26 08:58:34;;;;;;;4.35;3.35;;;;;;;26.37;31.57;98617.09;5052844;28;20021;-53
2022/04/26 09:01:31;;;;;;;10.70;3.72;;;;;;;28.27;30.72;98624.28;5053172;28;20021;-52
2022/04/26 09:04:02;;;;;;;13.25;3.72;;;;;;;30.06;26.80;98621.78;5056206;28;20120;-53
2022/04/26 09:06:39;;;;;;;13.05;3.80;;;;;;;30.22;26.25;98619.25;5091925;28;20494;-53
2022/04/26 09:09:10;;;;;;;7.22;3.17;;;;;;;29.55;26.70;98629.91;5092094;28;20099;-53
2022/04/26 09:11:37;;;;;;;11.07;3.75;;;;;;;28.88;27.65;98636.88;5091923;28;20073;-53
2022/04/26 09:14:05;;;;;;;11.02;4.15;;;;;;;28.43;28.09;98639.97;5091888;28;20031;-52
2022/04/26 09:16:31;;;;;;;9.70;3.50;;;;;;;27.92;29.34;98638.88;5090584;28;20021;-52
2022/04/26 09:19:06;;;;;;;4.07;2.97;;;;;;;28.48;28.32;98634.41;5091912;28;20032;-52
2022/04/26 09:21:36;;;;;;;9.70;3.33;;;;;;;30.13;26.86;98626.69;5090569;28;20032;-52
2022/04/26 09:24:06;;;;;;;7.47;3.47;;;;;;;31.33;24.78;98620.31;5091905;28;20114;-52
2022/04/26 09:26:34;;;;;;;7.07;3.30;;;;;;;32.12;24.18;98624.63;5092085;28;20294;-52
2022/04/26 09:29:00;;;;;;;10.10;3.97;;;;;;;32.68;22.94;98627.31;5093177;28;20079;-52
2022/04/26 09:31:28;;;;;;;7.30;4.15;;;;;;;32.68;23.01;98626.50;5095950;28;20020;-53
2022/04/26 09:34:05;;;;;;;5.10;2.95;;;;;;;34.13;21.83;98632.16;5095848;28;20022;-52
2022/04/26 09:36:41;;;;;;;5.78;3.45;;;;;;;35.58;19.67;98629.63;5096194;28;20447;-53
2022/04/26 09:39:08;;;;;;;4.57;3.50;;;;;;;34.48;20.22;98628.59;5094571;28;20044;-53
2022/04/26 09:41:35;;;;;;;4.15;3.30;;;;;;;34.32;20.51;98636.88;5095708;28;20088;-52
2022/04/26 09:44:04;;;;;;;8.38;3.40;;;;;;;34.27;20.95;98629.78;5095787;28;20024;-53
2022/04/26 09:46:49;;;;;;;7.07;3.25;;;;;;;34.00;21.37;98631.53;5095591;28;20020;-53
2022/04/26 09:49:21;;;;;;;6.25;3.20;;;;;;;33.85;21.17;98632.38;5095741;28;20050;-52
2022/04/26 09:51:52;;;;;;;6.35;3.47;;;;;;;34.07;20.71;98634.41;5095859;28;20093;-53
2022/04/26 09:54:18;;;;;;;6.90;3.30;;;;;;;34.68;20.25;98635.59;5095495;28;20508;-52
2022/04/26 09:56:45;;;;;;;7.70;3.47;;;;;;;34.48;20.05;98634.06;5095490;28;20028;-53
2022/04/26 09:59:15;;;;;;;15.13;3.80;;;;;;;32.89;21.40;98643.38;5094217;28;20020;-52
2022/04/26 10:01:43;;;;;;;7.25;3.20;;;;;;;31.12;22.99;98636.69;5095428;28;20054;-53
2022/04/26 10:04:15;;;;;;;5.85;3.08;;;;;;;30.78;23.90;98638.63;5094091;28;20035;-52
2022/04/26 10:06:43;;;;;;;7.88;3.53;;;;;;;31.92;22.41;98629.06;5095370;28;20035;-52
2022/04/26 10:09:10;;;;;;;13.95;3.65;;;;;;;32.87;21.74;98639.41;5095319;28;20513;-54
2022/04/26 10:11:37;;;;;;;4.25;2.88;;;;;;;33.61;21.24;98637.72;5095219;28;20051;-52
2022/04/26 10:14:05;;;;;;;4.22;3.17;;;;;;;34.74;19.34;98631.44;5093824;28;20515;-52
2022/04/26 10:16:32;;;;;;;7.85;3.40;;;;;;;35.27;18.93;98627.22;5095100;28;20048;-52
2022/04/26 10:19:09;;;;;;;10.15;3.70;;;;;;;35.03;18.85;98628.38;5093789;28;20020;-53
2022/04/26 10:21:40;;;;;;;9.18;3.40;;;;;;;33.85;20.18;98638.63;5095023;28;20028;-52
2022/04/26 10:24:12;;;;;;;9.93;3.83;;;;;;;32.63;20.98;98638.44;5093668;28;20028;-53
2022/04/26 10:26:38;;;;;;;12.27;4.38;;;;;;;30.82;22.94;98642.25;5094970;28;20016;-53
2022/04/26 10:29:07;;;;;;;6.82;3.53;;;;;;;29.51;25.16;98642.50;5093581;28;20024;-52
2022/04/26 10:31:35;;;;;;;8.77;3.70;;;;;;;29.68;25.57;98647.81;5094854;28;20047;-52
2022/04/26 10:34:14;;;;;;;7.57;4.22;;;;;;;29.30;25.38;98641.66;5093471;28;20016;-52
2022/04/26 10:36:41;;;;;;;6.93;3.28;;;;;;;29.94;24.44;98638.78;5093358;28;20028;-53
2022/04/26 10:39:09;;;;;;;4.95;3.10;;;;;;;31.20;22.83;98640.41;5094411;28;20043;-52
2022/04/26 10:41:39;;;;;;;9.02;3.63;;;;;;;32.41;21.68;98639.75;5093254;28;20024;-52
2022/04/26 10:44:14;;;;;;;6.78;3.90;;;;;;;32.86;21.35;98635.13;5093347;28;20069;-52
2022/04/26 10:46:40;;;;;;;5.72;3.70;;;;;;;33.30;20.86;98630.38;5093237;28;20119;-53
2022/04/26 10:49:38;;;;;;;5.72;3.30;;;;;;;33.25;21.26;98632.59;5094590;28;20031;-53
2022/04/26 10:54:48;;;;;;;8.10;3.35;;;;;;;34.35;19.52;98628.75;5094454;28;20028;-53
2022/04/26 10:57:18;;;;;;;4.35;3.15;;;;;;;34.44;19.62;98628.53;5094410;28;20051;-53
2022/04/26 10:59:56;;;;;;;4.47;3.05;;;;;;;33.76;20.14;98643.47;5094337;28;20024;-54
2022/04/26 11:02:25;;;;;;;3.50;2.70;;;;;;;34.10;19.74;98638.34;5094250;28;20073;-52
2022/04/26 11:05:24;;;;;;;6.35;3.40;;;;;;;34.81;19.27;98626.09;5094163;28;20035;-53
2022/04/26 11:07:50;;;;;;;4.63;3.03;;;;;;;33.75;19.15;98631.03;5068072;28;20488;-52
2022/04/26 11:10:20;;;;;;;4.78;2.95;;;;;;;32.08;20.93;98632.66;5094076;28;20525;-51
2022/04/26 11:12:46;;;;;;;5.63;3.38;;;;;;;30.89;22.13;98646.38;5094062;28;20020;-52
2022/04/26 11:15:20;;;;;;;4.82;3.08;;;;;;;31.41;21.99;98641.09;5092695;28;20039;-51
2022/04/26 11:17:47;;;;;;;3.67;3.20;;;;;;;32.32;20.67;98629.06;5092776;28;20386;-51
2022/04/26 11:20:16;;;;;;;6.07;3.58;;;;;;;32.96;19.99;98626.44;5093950;28;20488;-53
2022/04/26 11:22:43;;;;;;;4.80;3.20;;;;;;;33.22;19.73;98636.81;5093916;28;20024;-52
2022/04/26 11:28:06;;;;;;;4.90;2.80;;;;;;;34.09;18.91;98628.59;5094102;28;20043;-53
2022/04/26 11:30:53;;;;;;;2.95;2.53;;;;;;;34.75;17.27;98627.56;5093654;28;20027;-52
2022/04/26 11:33:22;;;;;;;6.82;3.50;;;;;;;34.80;17.62;98619.06;5093697;28;20020;-53
2022/04/26 11:36:06;;;;;;;4.72;3.10;;;;;;;34.70;17.57;98619.69;5093656;28;20028;-52
2022/04/26 11:38:32;;;;;;;3.53;2.90;;;;;;;35.17;17.20;98612.25;5093309;28;20119;-53
2022/04/26 11:41:00;;;;;;;3.25;2.70;;;;;;;35.30;17.25;98610.91;5093541;28;20069;-49
2022/04/26 11:43:31;;;;;;;7.65;2.83;;;;;;;35.27;17.21;98614.38;5093493;28;20086;-53
2022/04/26 11:45:58;;;;;;;3.35;2.38;;;;;;;34.10;17.07;98603.72;5093472;28;20027;-53
2022/04/26 11:48:29;;;;;;;3.08;2.47;;;;;;;33.23;17.72;98613.91;5092067;28;20028;-53
2022/04/26 11:50:59;;;;;;;4.38;2.85;;;;;;;32.78;18.44;98615.13;5092785;28;20020;-53
2022/04/26 11:53:36;;;;;;;4.90;2.92;;;;;;;31.54;19.68;98614.00;5092912;28;20031;-53
2022/04/26 11:56:06;;;;;;;4.50;3.10;;;;;;;31.45;20.50;98608.66;5093297;28;20028;-52
2022/04/26 11:58:37;;;;;;;2.92;2.63;;;;;;;31.63;19.93;98606.50;5091917;28;20508;-52
2022/04/26 12:01:12;;;;;;;3.85;2.83;;;;;;;31.87;20.44;98613.78;5091771;28;20436;-53
2022/04/26 12:03:49;;;;;;;3.35;2.60;;;;;;;31.61;20.15;98609.56;5093141;28;20047;-52
2022/04/26 12:06:27;;;;;;;7.28;3.00;;;;;;;30.33;21.68;98606.16;5092958;28;20031;-52
2022/04/26 12:09:02;;;;;;;3.30;2.80;;;;;;;28.70;23.35;98603.72;5091752;28;20089;-53
2022/04/26 12:11:36;;;;;;;10.48;3.38;;;;;;;27.33;24.59;98617.66;5092985;28;20401;-51
2022/04/26 12:14:13;;;;;;;7.45;3.72;;;;;;;26.57;25.56;98623.88;5092910;28;20455;-52
2022/04/26 12:16:59;;;;;;;5.07;3.10;;;;;;;25.89;25.88;98613.84;5093180;28;20115;-52
2022/04/26 12:19:38;;;;;;;6.75;3.38;;;;;;;25.20;27.45;98621.97;5092864;28;20150;-51
2022/04/26 12:22:05;;;;;;;5.15;2.67;;;;;;;25.39;27.89;98618.41;5092700;28;20027;-52
2022/04/26 12:24:32;;;;;;;6.28;3.35;;;;;;;26.14;27.25;98616.28;5092764;28;20032;-52
2022/04/26 12:27:11;;;;;;;7.97;3.97;;;;;;;27.22;25.83;98617.88;5092643;28;20120;-52
2022/04/26 12:29:37;;;;;;;6.40;3.25;;;;;;;28.31;25.36;98619.00;5092685;28;20505;-52
2022/04/26 12:32:08;;;;;;;5.93;2.80;;;;;;;29.13;23.57;98612.81;5091193;28;20089;-51
2022/04/26 12:34:35;;;;;;;5.50;3.70;;;;;;;29.22;23.39;98610.88;5092420;28;20495;-52
2022/04/26 12:37:09;;;;;;;8.63;3.30;;;;;;;28.55;23.66;98618.53;5090877;28;20063;-52
2022/04/26 12:39:41;;;;;;;7.82;3.33;;;;;;;27.83;24.30;98615.34;5091182;28;20111;-52
2022/04/26 12:42:12;;;;;;;6.28;2.80;;;;;;;27.71;24.86;98615.19;5092375;28;20033;-52
2022/04/26 12:44:51;;;;;;;5.10;3.30;;;;;;;27.94;24.30;98617.75;5092449;28;20032;-52
2022/04/26 12:53:00;;;;;;;7.82;3.45;;;;;;;28.54;23.74;98610.75;5092219;28;20127;-52
2022/04/26 12:55:25;;;;;;;4.13;2.75;;;;;;;28.90;23.60;98606.84;5092227;28;20024;-52
2022/04/26 12:57:54;;;;;;;5.53;3.10;;;;;;;29.32;23.02;98596.16;5090854;28;20601;-52
2022/04/26 13:00:22;;;;;;;8.82;4.35;;;;;;;29.23;23.13;98599.72;5090790;28;20508;-52
2022/04/26 13:03:09;;;;;;;9.88;3.75;;;;;;;28.52;23.91;98602.97;5091882;28;20494;-51
2022/04/26 13:05:58;;;;;;;12.43;4.20;;;;;;;27.59;24.63;98607.72;5091442;28;20048;-52
2022/04/26 13:08:24;;;;;;;6.72;3.65;;;;;;;26.88;25.07;98605.06;5091744;28;20032;-52
2022/04/26 13:10:49;;;;;;;4.00;3.47;;;;;;;26.48;25.68;98596.91;5091968;28;20031;-52
2022/04/26 13:13:16;;;;;;;6.03;3.55;;;;;;;26.35;25.81;98589.72;5091906;28;20389;-52
2022/04/26 13:15:43;;;;;;;6.20;3.55;;;;;;;26.06;25.62;98593.63;5092198;28;20490;-51
2022/04/26 13:18:10;;;;;;;7.20;3.85;;;;;;;25.57;25.67;98592.53;5091903;28;20017;-52
2022/04/26 13:20:37;;;;;;;5.78;3.55;;;;;;;25.11;26.14;98588.84;5091924;28;20031;-51
2022/04/26 13:23:03;;;;;;;9.20;3.75;;;;;;;24.84;26.89;98598.47;5091820;28;20028;-51
2022/04/26 13:25:29;;;;;;;8.10;3.88;;;;;;;25.00;26.39;98598.19;5090448;28;20024;-52
2022/04/26 13:27:55;;;;;;;4.55;3.55;;;;;;;25.22;26.00;98590.28;5090492;28;20016;-51
2022/04/26 13:30:22;;;;;;;6.60;3.63;;;;;;;25.48;26.10;98579.00;5090475;28;20031;-52
2022/04/26 13:32:48;;;;;;;13.00;3.80;;;;;;;25.65;26.71;98579.16;5091717;28;20021;-51
2022/04/26 13:35:14;;;;;;;6.43;3.80;;;;;;;25.70;26.55;98584.44;5091736;28;20170;-51
2022/04/26 13:37:40;;;;;;;4.28;3.42;;;;;;;25.38;26.63;98579.22;5090213;28;20071;-52
2022/04/26 13:40:07;;;;;;;6.57;3.72;;;;;;;25.23;26.92;98578.44;5090315;28;20516;-51
2022/04/26 13:42:35;;;;;;;15.70;4.60;;;;;;;25.02;26.97;98577.22;5091697;28;20028;-51
2022/04/26 13:45:01;;;;;;;11.88;6.40;;;;;;;24.67;27.28;98579.44;5091629;28;20020;-52
2022/04/26 13:47:28;;;;;;;11.45;4.13;;;;;;;24.46;27.40;98584.34;5091639;28;20028;-52
2022/04/26 13:49:54;;;;;;;13.00;6.10;;;;;;;24.29;28.28;98577.66;5091636;28;20013;-52
2022/04/26 13:52:21;;;;;;;12.23;4.30;;;;;;;24.25;28.75;98575.88;5090224;28;20636;-50
2022/04/26 13:54:48;;;;;;;12.45;4.43;;;;;;;24.32;28.30;98578.94;5091541;28;20032;-51
2022/04/26 13:57:15;;;;;;;7.63;3.83;;;;;;;24.26;27.59;98582.81;5090197;28;20520;-50
2022/04/26 13:59:41;;;;;;;13.43;3.65;;;;;;;24.23;27.73;98578.03;5091882;28;20033;-51
2022/04/26 14:02:08;;;;;;;7.90;3.97;;;;;;;24.23;27.63;98575.34;5091437;28;20386;-52
2022/04/26 14:04:34;;;;;;;9.20;4.22;;;;;;;24.17;27.43;98563.13;5091497;28;20429;-50
2022/04/26 14:07:01;;;;;;;8.50;3.63;;;;;;;24.07;28.26;98564.88;5091431;28;20027;-52
2022/04/26 14:09:27;;;;;;;6.72;3.63;;;;;;;23.82;28.49;98557.97;5091452;28;20069;-51
2022/04/26 14:11:56;;;;;;;6.85;3.58;;;;;;;23.63;28.29;98555.28;5090062;28;20548;-51
2022/04/26 14:22:34;;;;;;;4.13;3.72;;;;;;;22.03;29.07;98552.63;5095118;28;20030;-51
2022/04/26 14:25:03;;;;;;;5.78;3.10;;;;;;;22.14;29.24;98558.72;5094975;28;20095;-50
2022/04/26 14:27:30;;;;;;;14.98;3.88;;;;;;;22.46;28.86;98549.38;5094933;28;20482;-51
2022/04/26 14:29:56;;;;;;;7.93;3.35;;;;;;;22.61;29.42;98551.09;5094913;28;20460;-50
2022/04/26 14:32:22;;;;;;;7.70;3.13;;;;;;;22.70;29.18;98554.78;5093544;28;20119;-51
2022/04/26 14:34:48;;;;;;;7.50;3.35;;;;;;;22.69;29.08;98551.28;5094690;28;20036;-51
2022/04/26 14:37:16;;;;;;;6.80;3.28;;;;;;;22.59;28.65;98550.59;5094480;28;20048;-51
2022/04/26 14:39:42;;;;;;;9.20;3.60;;;;;;;22.61;29.26;98548.44;5094773;28;20031;-49
2022/04/26 14:42:08;;;;;;;6.80;3.63;;;;;;;22.73;28.69;98549.63;5094706;28;20030;-50
2022/04/26 14:44:35;;;;;;;5.75;3.20;;;;;;;22.77;28.53;98552.53;5093307;28;20071;-51
2022/04/26 14:47:04;;;;;;;6.55;2.70;;;;;;;22.73;28.63;98543.50;5093261;28;20024;-50
2022/04/26 14:49:30;;;;;;;7.95;3.53;;;;;;;22.68;28.75;98538.22;5093264;28;20029;-51
2022/04/26 14:51:56;;;;;;;11.20;3.55;;;;;;;22.55;28.93;98545.00;5094515;28;20039;-50
2022/04/26 14:54:23;;;;;;;7.15;2.80;;;;;;;22.49;28.86;98548.81;5094426;28;20028;-50
2022/04/26 14:56:50;;;;;;;13.50;4.50;;;;;;;22.34;29.57;98545.19;5094446;28;20099;-51
2022/04/26 14:59:20;;;;;;;10.07;6.75;;;;;;;22.18;29.35;98532.22;5094440;28;20020;-49
2022/04/26 15:01:48;;;;;;;11.02;4.30;;;;;;;22.10;28.60;98547.78;5093007;28;20100;-51
2022/04/26 15:04:18;;;;;;;15.20;7.15;;;;;;;22.03;28.89;98541.13;5094279;28;20024;-50
2022/04/26 15:06:44;;;;;;;10.57;6.97;;;;;;;21.93;29.03;98550.03;5092935;28;20082;-50
2022/04/26 15:17:28;;;;;;;3.70;2.63;;;;;;;21.83;29.49;98542.91;5094132;28;20108;-51
2022/04/26 15:19:54;;;;;;;3.20;2.40;;;;;;;21.79;29.70;98544.50;5093967;28;20024;-50
2022/04/26 15:22:21;;;;;;;6.60;2.70;;;;;;;21.57;29.07;98538.78;5092603;28;20032;-49
2022/04/26 15:24:47;;;;;;;4.88;3.00;;;;;;;21.38;29.84;98542.03;5092631;28;20027;-51
2022/04/26 15:27:15;;;;;;;5.40;2.80;;;;;;;21.24;30.17;98539.16;5093827;28;20032;-51
2022/04/26 15:29:41;;;;;;;9.05;3.15;;;;;;;21.12;30.55;98536.03;5093895;28;20013;-50
2022/04/26 15:32:07;;;;;;;5.78;2.40;;;;;;;21.01;30.60;98540.59;5093793;28;20440;-50
2022/04/26 15:34:33;;;;;;;3.05;2.70;;;;;;;21.03;30.51;98533.13;5093695;28;20485;-51
2022/04/26 15:36:58;;;;;;;3.05;2.75;;;;;;;21.01;30.31;98537.94;5093379;28;20062;-50
2022/04/26 15:39:25;;;;;;;3.58;2.40;;;;;;;20.91;29.99;98535.31;5092322;28;20036;-50
2022/04/26 15:41:51;;;;;;;4.85;2.13;;;;;;;20.87;29.67;98532.38;5093581;28;20023;-51
2022/04/26 15:44:17;;;;;;;3.35;2.70;;;;;;;20.81;29.65;98528.13;5093526;28;20031;-51